»·PEaware :: UAL743 KBUR-KSFO

UAL743 :: KBUR-KSFO

FLIGHT INFORMATION

Flight Status: Arrived
Operator:
United Airlines
More flights by this operator :: More flights under this callsign
Pilot: Anonymous 20536 (20536)
Aircraft: BOEING 737-800
(B738)
More flights by this aircraft type
Origin: KBUR Bob Hope-Burbank
United States
Destination: KSFO San Francisco Intl
United States
More flights between these airports :: More routes between these airports
Route: +OROSZ2 COREZ MAKRS SERFR SERFR3
File this flight plan on PilotEdge
Remarks:
Altitude:
(Current/Filed)
30,000ft
Speed:
(Current/Filed)
380kts
Departed: 26-Sep-18 07:55 PM
Arrived: 26-Sep-18 08:45 PM
Distance/Time
Traveled:
283nm/0:50
Distance/Time
To Go:
Arrived

Flight Plot

Page will automatically refresh every two minutes.

Flight plan parsing failed; only flown route is shown


Map Options




Map Legend


Flown Route
Filed Route
Departure Airport
Arrival Airport
Navaid (VOR, NDB)
Fix

Horizontal Profiles

Position Reports

Time Latitude Longitude Heading Altitude Ground
Speed
26-Sep-18 19:42 34.196891 -118.352852 177 785ft 0kts
26-Sep-18 19:43 34.196891 -118.352852 177 785ft 0kts
26-Sep-18 19:44 34.196891 -118.352852 177 785ft 0kts
26-Sep-18 19:45 34.196891 -118.352852 177 785ft 0kts
26-Sep-18 19:46 34.196891 -118.352852 177 785ft 0kts
26-Sep-18 19:47 34.196891 -118.352852 177 785ft 0kts
26-Sep-18 19:48 34.196891 -118.352852 177 785ft 0kts
26-Sep-18 19:49 34.196891 -118.352852 177 785ft 0kts
26-Sep-18 19:50 34.197178 -118.352387 273 785ft 2kts
26-Sep-18 19:51 34.197177 -118.352330 268 785ft 0kts
26-Sep-18 19:52 34.197186 -118.353233 271 785ft 7kts
26-Sep-18 19:53 34.197189 -118.353367 271 785ft 0kts
26-Sep-18 19:54 34.199451 -118.355543 347 785ft 20kts
26-Sep-18 19:55 34.205505 -118.357210 347 785ft 24kts
26-Sep-18 19:56 34.211113 -118.358759 342 785ft 14kts
26-Sep-18 19:57 34.209238 -118.359608 167 785ft 81kts
26-Sep-18 19:58 34.165406 -118.367506 219 2501ft 226kts
26-Sep-18 19:59 34.119837 -118.430271 254 5407ft 281kts
26-Sep-18 20:00 34.146977 -118.515473 322 8933ft 294kts
26-Sep-18 20:01 34.223324 -118.561198 337 11663ft 328kts
26-Sep-18 20:02 34.307358 -118.608105 336 14614ft 344kts
26-Sep-18 20:03 34.393027 -118.660305 317 17296ft 361kts
26-Sep-18 20:04 34.462300 -118.747312 313 19857ft 372kts
26-Sep-18 20:05 34.534660 -118.839915 313 22216ft 384kts
26-Sep-18 20:06 34.608919 -118.935236 314 24528ft 394kts
26-Sep-18 20:07 34.684337 -119.032311 314 26754ft 399kts
26-Sep-18 20:08 34.760732 -119.130867 313 28575ft 405kts
26-Sep-18 20:09 34.838057 -119.230915 312 30227ft 409kts
26-Sep-18 20:10 34.916462 -119.332754 312 30234ft 437kts
26-Sep-18 20:11 35.001389 -119.443380 312 30116ft 463kts
26-Sep-18 20:12 35.088926 -119.557765 312 29989ft 476kts
26-Sep-18 20:13 35.176075 -119.672014 312 29992ft 476kts
26-Sep-18 20:14 35.266219 -119.790635 312 30032ft 478kts
26-Sep-18 20:15 35.355593 -119.908642 312 30068ft 478kts
26-Sep-18 20:16 35.445902 -120.028300 312 30054ft 477kts
26-Sep-18 20:17 35.535773 -120.147795 312 30028ft 478kts
26-Sep-18 20:18 35.625572 -120.267622 312 30024ft 479kts
26-Sep-18 20:19 35.709894 -120.394032 295 30036ft 479kts
26-Sep-18 20:20 35.759044 -120.545526 293 30021ft 479kts
26-Sep-18 20:21 35.813222 -120.690761 294 30028ft 480kts
26-Sep-18 20:22 35.869329 -120.839707 294 30028ft 482kts
26-Sep-18 20:23 35.925753 -120.989032 294 30027ft 481kts
26-Sep-18 20:24 35.982485 -121.138709 294 30027ft 482kts
26-Sep-18 20:25 36.039394 -121.287927 296 30009ft 474kts
26-Sep-18 20:26 36.115032 -121.399370 320 30053ft 434kts
26-Sep-18 20:27 36.212587 -121.477582 327 30052ft 434kts
26-Sep-18 20:28 36.313766 -121.556556 327 28023ft 432kts
26-Sep-18 20:29 36.413569 -121.634918 327 25373ft 420kts
26-Sep-18 20:30 36.508990 -121.710064 327 22924ft 406kts
26-Sep-18 20:31 36.602090 -121.783634 327 20502ft 393kts
26-Sep-18 20:32 36.692477 -121.855279 327 18211ft 380kts
26-Sep-18 20:33 36.786513 -121.907302 347 15975ft 368kts
26-Sep-18 20:34 36.884295 -121.934255 348 13878ft 356kts
26-Sep-18 20:35 36.978555 -121.962844 342 11859ft 344kts
26-Sep-18 20:36 37.065800 -121.997317 343 10913ft 305kts
26-Sep-18 20:37 37.142780 -122.027465 343 9701ft 295kts
26-Sep-18 20:38 37.218915 -122.057307 343 8640ft 284kts
26-Sep-18 20:39 37.293391 -122.086558 343 7506ft 278kts
26-Sep-18 20:40 37.365753 -122.115076 342 6247ft 267kts
26-Sep-18 20:41 37.433751 -122.139138 344 5020ft 240kts
26-Sep-18 20:42 37.496295 -122.160583 345 3842ft 229kts
26-Sep-18 20:43 37.544573 -122.198251 298 2829ft 202kts
26-Sep-18 20:44 37.569734 -122.258649 300 1799ft 186kts
26-Sep-18 20:45 37.590908 -122.308945 301 896ft 138kts
26-Sep-18 20:46 37.608363 -122.350217 299 218ft 130kts
26-Sep-18 20:47 37.619911 -122.377938 293 20ft 14kts
26-Sep-18 20:48 37.619442 -122.381690 272 20ft 18kts
26-Sep-18 20:49 37.619186 -122.383513 290 20ft 0kts
26-Sep-18 20:50 37.619186 -122.383513 290 20ft 0kts
26-Sep-18 20:51 37.619186 -122.383513 290 20ft 0kts

Navigation Log

Ident Type
Flight plan parsing failed, navigation log unavailable